Etusivu
METAR-TAF:

METAR-TAF

Lentoasemat :

Ulan Bator, Mongolia

Chinggis Khaanin kansainvälinen lentoasema

Leveyspiiri: 47-55N, Pituuspiiri: 106-52E, korkeus merenpinnasta: 1306 m

Tämänhetkinen sää

Tämä raportti tehtiin 30 minuuttia sitten, kello 23.30 UTC
tyyntä
Lämpötila 14°C
Kosteus 67%
Ilmanpaine 1015 hPa
Näkyvyys 10 km tai enemmän
ei pilviä alle 1500 m:ssä eikä cumulonimbus-pilviä

METAR: ZMUB 232330Z 00000MPS CAVOK 14/08 Q1015 NOSIG RMK QFE654.4 63

Aika: 09:00 (00:00 UTC)

Sääennuste

Tämä raportti tehtiin 7 tuntia ja 20 minuuttia sitten, kello 16.40 UTC
Ennuste voimassa 23. päivästä klo 18 UTC - 24. päivään klo 24 UTC
Tuuli 4 kn eri suunnista
Näkyvyys 10 km tai enemmän
Muutamia pilviä 3000 ft:n korkeudessa, Cumulonimbus.
Hajanaisia pilviä 3300 ft:n korkeudessa

TAF: ZMUB 231640Z 2318/2424 VRB02MPS 9999 FEW030CB SCT033 TN12/2321Z TX29/2407Z

Säähavainnot ja -ennusteet yli 4000 lentoasemalta (METAR- ja TAF-raportit).

Käytössä olevat sääasemat on merkitty karttaan keltaisilla ja punaisilla pisteillä.

Aseta hiiri pisteen päälle nähdäksesi sääaseman nimen.

Klikkaa sitten nähdäksesi säähavainnot ja -ennusteet.

Kartan vaihtaminen: klikkaa mustalla rastilla varustettuja vihreitä pisteitä, niin voit zoomata sisään; viivalla varustettua vihreää pistettä, niin voit zoomata ulos tai vihreitä nuolia, niin pääset viereisille kartoille.


METAR-TAF: